Weather History for KDYT - January, 2013

Change the Weather History Date:

Monday, January 14, 2013

  Actual Average Record
Temperature  
Mean Temperature 9 °F -  
Max Temperature 12 °F 20 °F 40 °F (1987)
Min Temperature 6 °F 1 °F -35 °F (1965)
Degree Days  
Heating Degree Days 56    
Moisture  
Dew Point 1 °F    
Average Humidity 69    
Maximum Humidity 79    
Minimum Humidity 57    
Precipitation  
Precipitation 0.00 in - - ()
Sea Level Pressure  
Sea Level Pressure 30.29 in    
Wind  
Wind Speed 9 mph (WSW)    
Max Wind Speed 14 mph    
Max Gust Speed 18 mph    
Visibility 10 miles    
Events Snow    
Averages and records for this station are not official NWS values.
T = Trace of Precipitation, MM = Missing Value Source: NWS Daily Summary

Daily Weather History Graph

Daily Weather History Graph

Search for Another Location

Airport or City:

Trip Planner

Search our weather history database for the weather conditions in past years. The results will help you decide how hot, cold, wet, or windy it might be!

Date:

Astronomy

Jan. 14, 2013 Rise Set
Actual Time 7:48 AM CST 4:46 PM CST
Civil Twilight 7:14 AM CST 5:20 PM CST
Nautical Twilight 6:37 AM CST 5:57 PM CST
Astronomical Twilight 6:00 AM CST 6:34 PM CST
Moon 9:07 AM CST (1/14) 8:49 PM CST (1/14)
Length of Visible Light 10h 05m
Length of Day
8h 57m
Waxing Crescent, 11% of the Moon is Illuminated
Jan 14
Waxing Crescent
Jan 18
First Quarter
Jan 26
Full
Feb 3
Last Quarter
Feb 10
New

Hourly Weather History & Observations

Time (CST) Temp. Windchill Dew Point Humidity Pressure Visibility Wind Dir Wind Speed Gust Speed Precip Events Conditions
12:13 AM 8.6 °F -4.7 °F 1.4 °F 73% 30.18 in 10.0 mi SSW 9.2 mph - N/A   Overcast
12:33 AM 8.6 °F -4.7 °F 1.4 °F 73% 30.18 in 10.0 mi SSW 9.2 mph - N/A   Overcast
12:54 AM 8.6 °F -4.7 °F 1.4 °F 73% 30.18 in 10.0 mi SSW 9.2 mph - N/A   Overcast
1:13 AM 8.6 °F -4.7 °F 1.4 °F 73% 30.18 in 10.0 mi SSW 9.2 mph - N/A   Overcast
1:33 AM 8.6 °F -5.5 °F 3.2 °F 79% 30.18 in 10.0 mi SW 10.4 mph - N/A   Overcast
1:54 AM 8.6 °F -6.3 °F 3.2 °F 79% 30.19 in 10.0 mi SW 11.5 mph - N/A   Overcast
2:14 AM 8.6 °F -4.7 °F 3.2 °F 79% 30.20 in 10.0 mi SW 9.2 mph - N/A   Overcast
2:33 AM 8.6 °F -3.7 °F 3.2 °F 79% 30.20 in 10.0 mi SW 8.1 mph - N/A   Overcast
2:54 AM 10.4 °F -1.5 °F 3.2 °F 73% 30.21 in 10.0 mi SW 8.1 mph - N/A   Overcast
3:14 AM 10.4 °F -0.4 °F 3.2 °F 73% 30.21 in 10.0 mi SW 6.9 mph - N/A   Overcast
3:33 AM 8.6 °F -1.3 °F 3.2 °F 79% 30.22 in 10.0 mi SW 5.8 mph - N/A   Mostly Cloudy
3:54 AM 8.6 °F 0.1 °F 3.2 °F 79% 30.22 in 10.0 mi SW 4.6 mph - N/A   Overcast
4:14 AM 10.4 °F 2.2 °F 3.2 °F 73% 30.22 in 10.0 mi SW 4.6 mph - N/A   Overcast
4:33 AM 10.4 °F -0.4 °F 3.2 °F 73% 30.22 in 10.0 mi WSW 6.9 mph - N/A   Overcast
4:54 AM 10.4 °F -3.3 °F 3.2 °F 73% 30.22 in 10.0 mi West 10.4 mph - N/A   Overcast
5:14 AM 10.4 °F -4.8 °F 1.4 °F 67% 30.22 in 10.0 mi West 12.7 mph - N/A   Overcast
5:33 AM 8.6 °F -7.7 °F 1.4 °F 73% 30.23 in 10.0 mi West 13.8 mph - N/A   Mostly Cloudy
5:54 AM 8.6 °F -7.0 °F 1.4 °F 73% 30.24 in 10.0 mi West 12.7 mph - N/A   Overcast
6:14 AM 8.6 °F -6.3 °F 1.4 °F 73% 30.26 in 10.0 mi West 11.5 mph - N/A   Overcast
6:33 AM 8.6 °F -4.7 °F -0.4 °F 67% 30.27 in 10.0 mi West 9.2 mph - N/A   Mostly Cloudy
6:54 AM 6.8 °F -5.9 °F -0.4 °F 72% 30.27 in 10.0 mi West 8.1 mph - N/A   Clear
7:14 AM 6.8 °F -7.8 °F -0.4 °F 72% 30.28 in 10.0 mi West 10.4 mph - N/A   Clear
7:33 AM 6.8 °F -7.8 °F -0.4 °F 72% 30.29 in 10.0 mi West 10.4 mph - N/A   Mostly Cloudy
7:54 AM 6.8 °F -8.6 °F -0.4 °F 72% 30.30 in 10.0 mi WSW 11.5 mph - N/A   Overcast
8:14 AM 6.8 °F -6.9 °F -0.4 °F 72% 30.31 in 10.0 mi WSW 9.2 mph - N/A   Overcast
8:33 AM 6.8 °F -7.8 °F -0.4 °F 72% 30.31 in 10.0 mi WSW 10.4 mph - N/A   Overcast
8:54 AM 6.8 °F -8.6 °F -0.4 °F 72% 30.32 in 10.0 mi SW 11.5 mph - N/A   Overcast
9:13 AM 6.8 °F -6.9 °F -0.4 °F 72% 30.33 in 10.0 mi WSW 9.2 mph - N/A   Overcast
9:33 AM 6.8 °F -4.8 °F -0.4 °F 72% 30.33 in 10.0 mi WSW 6.9 mph - N/A   Overcast
9:54 AM 6.8 °F -5.9 °F -0.4 °F 72% 30.34 in 10.0 mi WSW 8.1 mph - N/A   Overcast
10:13 AM 6.8 °F -7.8 °F -0.4 °F 72% 30.34 in 10.0 mi WSW 10.4 mph - N/A   Overcast
10:33 AM 6.8 °F -8.6 °F -2.2 °F 67% 30.34 in 10.0 mi West 11.5 mph - N/A   Overcast
10:54 AM 6.8 °F -7.8 °F -0.4 °F 72% 30.35 in 7.0 mi West 10.4 mph - N/A Snow Light Snow
11:13 AM 6.8 °F -7.8 °F -2.2 °F 67% 30.34 in 10.0 mi West 10.4 mph - N/A   Mostly Cloudy
11:33 AM 6.8 °F -8.6 °F -2.2 °F 67% 30.34 in 10.0 mi West 11.5 mph - N/A   Mostly Cloudy
11:54 AM 8.6 °F -6.3 °F -2.2 °F 62% 30.34 in 10.0 mi West 11.5 mph 17.3 mph N/A   Scattered Clouds
12:13 PM 8.6 °F -7.0 °F -2.2 °F 62% 30.33 in 10.0 mi West 12.7 mph - N/A   Scattered Clouds
12:33 PM 8.6 °F -7.0 °F -2.2 °F 62% 30.33 in 10.0 mi West 12.7 mph - N/A   Scattered Clouds
12:54 PM 10.4 °F -4.8 °F -2.2 °F 57% 30.32 in 10.0 mi West 12.7 mph - N/A   Scattered Clouds
1:13 PM 10.4 °F -4.8 °F -2.2 °F 57% 30.31 in 10.0 mi West 12.7 mph - N/A   Clear
1:34 PM 10.4 °F -4.8 °F -2.2 °F 57% 30.31 in 10.0 mi West 12.7 mph 17.3 mph N/A   Clear
1:54 PM 10.4 °F -4.1 °F -0.4 °F 62% 30.31 in 10.0 mi WSW 11.5 mph - N/A   Clear
2:13 PM 10.4 °F -2.4 °F -0.4 °F 62% 30.32 in 10.0 mi SW 9.2 mph - N/A   Clear
2:34 PM 12.2 °F -2.5 °F -0.4 °F 57% 30.32 in 10.0 mi West 12.7 mph 18.4 mph N/A   Clear
2:53 PM 12.2 °F -1.0 °F -0.4 °F 57% 30.32 in 10.0 mi West 10.4 mph - N/A   Clear
3:13 PM 12.2 °F -2.5 °F -0.4 °F 57% 30.32 in 10.0 mi SW 12.7 mph - N/A   Clear
3:34 PM 12.2 °F -1.0 °F -0.4 °F 57% 30.32 in 10.0 mi WSW 10.4 mph - N/A   Clear
3:53 PM 12.2 °F -0.2 °F 1.4 °F 62% 30.32 in 10.0 mi WSW 9.2 mph - N/A   Clear
4:13 PM 12.2 °F -1.8 °F 1.4 °F 62% 30.32 in 10.0 mi SW 11.5 mph - N/A   Clear
4:34 PM 12.2 °F 0.7 °F 1.4 °F 62% 30.32 in 10.0 mi WSW 8.1 mph - N/A   Clear
4:53 PM 12.2 °F 0.7 °F 1.4 °F 62% 30.32 in 10.0 mi WSW 8.1 mph - N/A   Clear
5:13 PM 12.2 °F 2.9 °F 1.4 °F 62% 30.32 in 10.0 mi SW 5.8 mph - N/A   Clear
5:34 PM 12.2 °F 1.7 °F 1.4 °F 62% 30.32 in 10.0 mi SSW 6.9 mph - N/A   Clear
5:53 PM 12.2 °F 0.7 °F 1.4 °F 62% 30.32 in 10.0 mi SSW 8.1 mph - N/A   Clear
6:13 PM 10.4 °F -1.5 °F 1.4 °F 67% 30.32 in 10.0 mi SSW 8.1 mph - N/A   Clear
6:34 PM 10.4 °F -1.5 °F 1.4 °F 67% 30.32 in 10.0 mi SSW 8.1 mph - N/A   Clear
6:53 PM 10.4 °F -1.5 °F 1.4 °F 67% 30.32 in 10.0 mi SSW 8.1 mph - N/A   Clear
7:13 PM 10.4 °F -2.4 °F 1.4 °F 67% 30.32 in 10.0 mi SSW 9.2 mph - N/A   Clear
7:53 PM 8.6 °F -4.7 °F 1.4 °F 73% 30.32 in 10.0 mi SW 9.2 mph - N/A   Clear
8:14 PM 8.6 °F -5.5 °F 1.4 °F 73% 30.32 in 10.0 mi SW 10.4 mph - N/A   Clear
8:33 PM 8.6 °F -4.7 °F 1.4 °F 73% 30.31 in 10.0 mi SW 9.2 mph - N/A   Clear
8:53 PM 8.6 °F -3.7 °F 1.4 °F 73% 30.31 in 10.0 mi SW 8.1 mph - N/A   Mostly Cloudy
9:13 PM 8.6 °F -2.6 °F 1.4 °F 73% 30.31 in 10.0 mi SSW 6.9 mph - N/A   Overcast
9:34 PM 8.6 °F -2.6 °F 1.4 °F 73% 30.31 in 10.0 mi SW 6.9 mph - N/A   Overcast
9:53 PM 8.6 °F -5.5 °F 1.4 °F 73% 30.31 in 10.0 mi SW 10.4 mph - N/A   Overcast
10:14 PM 8.6 °F -4.7 °F 1.4 °F 73% 30.31 in 10.0 mi SW 9.2 mph - N/A   Overcast
10:33 PM 8.6 °F -4.7 °F 1.4 °F 73% 30.30 in 10.0 mi SW 9.2 mph - N/A   Overcast
10:54 PM 8.6 °F -4.7 °F 1.4 °F 73% 30.30 in 10.0 mi SW 9.2 mph - N/A   Overcast
11:13 PM 8.6 °F -3.7 °F 1.4 °F 73% 30.30 in 10.0 mi SW 8.1 mph - N/A   Overcast
11:33 PM 10.4 °F -1.5 °F 1.4 °F 67% 30.29 in 10.0 mi SW 8.1 mph - N/A   Overcast
11:54 PM 10.4 °F -1.5 °F 1.4 °F 67% 30.28 in 10.0 mi SSW 8.1 mph - N/A   Overcast